createdAt,value
2023-04-25T00:00:41.548Z,1.48
2023-04-25T00:01:41.544Z,1.47
2023-04-25T00:02:41.640Z,1.48
2023-04-25T00:03:41.658Z,1.49
2023-04-25T00:04:41.626Z,1.50
2023-04-25T00:05:41.538Z,1.52
2023-04-25T00:06:41.501Z,1.51
2023-04-25T00:07:41.510Z,1.49
2023-04-25T00:08:41.504Z,1.50
2023-04-25T00:09:41.500Z,1.52
2023-04-25T00:10:41.530Z,1.49
2023-04-25T00:11:41.625Z,1.49
2023-04-25T00:12:41.619Z,1.47
2023-04-25T00:13:41.681Z,1.48
2023-04-25T00:14:41.759Z,1.49
2023-04-25T00:15:41.853Z,1.50
2023-04-25T00:16:41.850Z,1.46
2023-04-25T00:17:41.944Z,1.45
2023-04-25T00:18:41.950Z,1.47
2023-04-25T00:19:41.992Z,1.48
2023-04-25T00:20:42.053Z,1.47
2023-04-25T00:21:42.112Z,1.46
2023-04-25T00:22:42.158Z,1.48
2023-04-25T00:23:42.210Z,1.48
2023-04-25T00:24:42.261Z,1.46
2023-04-25T00:25:42.317Z,1.46
2023-04-25T00:26:42.364Z,1.47
2023-04-25T00:27:42.404Z,1.46
2023-04-25T00:28:42.473Z,1.43
2023-04-25T00:29:42.525Z,1.45
2023-04-25T00:30:42.557Z,1.42
2023-04-25T00:31:42.692Z,1.43
2023-04-25T00:32:42.696Z,1.42
2023-04-25T00:33:42.709Z,1.43
2023-04-25T00:34:42.775Z,1.42
2023-04-25T00:35:42.826Z,1.40
2023-04-25T00:36:42.873Z,1.45
2023-04-25T00:37:42.925Z,1.42
2023-04-25T00:38:42.975Z,1.42
2023-04-25T00:39:43.033Z,1.45
2023-04-25T00:40:43.057Z,1.42
2023-04-25T00:41:43.100Z,1.42
2023-04-25T00:42:43.167Z,1.38
2023-04-25T00:43:43.264Z,1.41
2023-04-25T00:44:43.296Z,1.40
2023-04-25T00:45:43.333Z,1.42
2023-04-25T00:46:43.356Z,1.43
2023-04-25T00:47:43.467Z,1.44
2023-04-25T00:48:43.412Z,1.42
2023-04-25T00:49:43.467Z,1.43
2023-04-25T00:50:43.516Z,1.45
2023-04-25T00:51:43.581Z,1.41
2023-04-25T00:52:43.603Z,1.41
2023-04-25T00:53:43.663Z,1.42
2023-04-25T00:54:43.714Z,1.42
2023-04-25T00:55:43.765Z,1.40
2023-04-25T00:56:43.815Z,1.37
2023-04-25T00:57:43.871Z,1.38
2023-04-25T00:58:43.912Z,1.41
2023-04-25T00:59:43.968Z,1.40
2023-04-25T01:00:44.056Z,1.39
2023-04-25T01:01:45.166Z,1.37
2023-04-25T01:02:44.332Z,1.40
2023-04-25T01:03:44.292Z,1.40
2023-04-25T01:04:44.119Z,1.40
2023-04-25T01:05:44.116Z,1.40
2023-04-25T01:06:44.107Z,1.40
2023-04-25T01:07:44.130Z,1.41
2023-04-25T01:08:44.108Z,1.39
2023-04-25T01:09:44.114Z,1.39
2023-04-25T01:10:44.101Z,1.39
2023-04-25T01:11:44.106Z,1.39
2023-04-25T01:12:44.084Z,1.36
2023-04-25T01:13:44.131Z,1.38
2023-04-25T01:14:44.200Z,1.40
2023-04-25T01:15:44.242Z,1.38
2023-04-25T01:16:44.344Z,1.39
2023-04-25T01:17:44.379Z,1.40
2023-04-25T01:18:44.372Z,1.36
2023-04-25T01:19:44.423Z,1.37
2023-04-25T01:20:44.482Z,1.36
2023-04-25T01:21:44.560Z,1.36
2023-04-25T01:22:44.580Z,1.37
2023-04-25T01:23:44.641Z,1.36
2023-04-25T01:24:44.624Z,1.36
2023-04-25T01:25:44.622Z,1.36
2023-04-25T01:26:44.617Z,1.36
2023-04-25T01:27:44.614Z,1.37
2023-04-25T01:28:44.606Z,1.37
2023-04-25T01:29:44.619Z,1.36
2023-04-25T01:30:44.613Z,1.39
2023-04-25T01:31:44.672Z,1.39
2023-04-25T01:32:44.640Z,1.37
2023-04-25T01:33:44.573Z,1.34
2023-04-25T01:34:44.650Z,1.39
2023-04-25T01:35:44.665Z,1.39
2023-04-25T01:36:44.720Z,1.38
2023-04-25T01:37:44.762Z,1.40
2023-04-25T01:38:44.819Z,1.37
2023-04-25T01:39:44.881Z,1.40
2023-04-25T01:40:44.966Z,1.38
2023-04-25T01:41:45.008Z,1.37
2023-04-25T01:42:45.060Z,1.39
2023-04-25T01:43:45.174Z,1.38
2023-04-25T01:44:45.140Z,1.38
2023-04-25T01:45:45.284Z,1.38
2023-04-25T01:46:45.252Z,1.38
2023-04-25T01:47:45.320Z,1.39
2023-04-25T01:48:45.329Z,1.37
2023-04-25T01:49:45.378Z,1.34
2023-04-25T01:50:45.433Z,1.37
2023-04-25T01:51:45.491Z,1.37
2023-04-25T01:52:45.527Z,1.38
2023-04-25T01:53:45.592Z,1.36
2023-04-25T01:54:45.668Z,1.39
2023-04-25T01:55:45.677Z,1.37
2023-04-25T01:56:45.732Z,1.37
2023-04-25T01:57:46.616Z,1.36
2023-04-25T01:58:45.774Z,1.37
2023-04-25T01:59:45.765Z,1.37
2023-04-25T02:00:45.775Z,1.38
2023-04-25T02:01:45.813Z,1.39
2023-04-25T02:02:45.830Z,1.40
2023-04-25T02:03:45.856Z,1.43
2023-04-25T02:04:45.794Z,1.40
2023-04-25T02:05:45.757Z,1.35
2023-04-25T02:06:45.738Z,1.40
2023-04-25T02:07:45.742Z,1.35
2023-04-25T02:08:45.739Z,1.39
2023-04-25T02:09:46.621Z,1.39
2023-04-25T02:10:45.725Z,1.40
2023-04-25T02:11:45.731Z,1.38
2023-04-25T02:12:45.745Z,1.37
2023-04-25T02:13:45.720Z,1.37
2023-04-25T02:14:45.723Z,1.36
2023-04-25T02:15:46.733Z,1.38
2023-04-25T02:16:45.801Z,1.38
2023-04-25T02:17:45.720Z,1.35
2023-04-25T02:18:45.701Z,1.35
2023-04-25T02:19:45.696Z,1.36
2023-04-25T02:20:45.692Z,1.36
2023-04-25T02:21:45.686Z,1.36
2023-04-25T02:22:45.682Z,1.41
2023-04-25T02:23:45.684Z,1.37
2023-04-25T02:24:45.672Z,1.38
2023-04-25T02:25:45.665Z,1.38
2023-04-25T02:26:45.673Z,1.39
2023-04-25T02:27:45.679Z,1.38
2023-04-25T02:28:45.693Z,1.38
2023-04-25T02:29:45.684Z,1.38
2023-04-25T02:30:45.679Z,1.37
2023-04-25T02:31:45.783Z,1.36
2023-04-25T02:32:45.700Z,1.37
2023-04-25T02:33:45.676Z,1.37
2023-04-25T02:34:45.693Z,1.37
2023-04-25T02:35:45.674Z,1.35
2023-04-25T02:36:45.677Z,1.35
2023-04-25T02:37:45.683Z,1.38
2023-04-25T02:38:45.739Z,1.39
2023-04-25T02:39:45.815Z,1.36
2023-04-25T02:40:45.867Z,1.36
2023-04-25T02:41:45.861Z,1.36
2023-04-25T02:42:45.866Z,1.36
2023-04-25T02:43:45.862Z,1.37
2023-04-25T02:44:45.872Z,1.38
2023-04-25T02:45:45.868Z,1.36
2023-04-25T02:46:45.923Z,1.38
2023-04-25T02:47:45.955Z,1.35
2023-04-25T02:48:45.880Z,1.36
2023-04-25T02:49:45.864Z,1.37
2023-04-25T02:50:45.883Z,1.35
2023-04-25T02:51:45.916Z,1.37
2023-04-25T02:52:45.970Z,1.36
2023-04-25T02:53:45.959Z,1.36
2023-04-25T02:54:45.962Z,1.36
2023-04-25T02:55:45.958Z,1.37
2023-04-25T02:56:45.955Z,1.35
2023-04-25T02:57:45.965Z,1.35
2023-04-25T02:58:45.951Z,1.36
2023-04-25T02:59:45.945Z,1.37
2023-04-25T03:00:45.972Z,1.36
2023-04-25T03:01:45.968Z,1.35
2023-04-25T03:02:46.012Z,1.34
2023-04-25T03:03:46.050Z,1.35
2023-04-25T03:04:46.119Z,1.33
2023-04-25T03:05:46.096Z,1.36
2023-04-25T03:06:46.142Z,1.34
2023-04-25T03:07:46.178Z,1.34
2023-04-25T03:08:46.231Z,1.33
2023-04-25T03:09:46.271Z,1.35
2023-04-25T03:10:46.323Z,1.34
2023-04-25T03:11:46.388Z,1.33
2023-04-25T03:12:46.409Z,1.35
2023-04-25T03:13:46.458Z,1.34
2023-04-25T03:14:46.513Z,1.35
2023-04-25T03:15:46.559Z,1.32
2023-04-25T03:16:46.620Z,1.33
2023-04-25T03:17:46.691Z,1.31
2023-04-25T03:18:46.697Z,1.30
2023-04-25T03:19:46.774Z,1.31
2023-04-25T03:20:46.793Z,1.32
2023-04-25T03:21:46.853Z,1.31
2023-04-25T03:22:46.893Z,1.32
2023-04-25T03:23:46.926Z,1.32
2023-04-25T03:24:46.974Z,1.31
2023-04-25T03:25:47.023Z,1.34
2023-04-25T03:26:47.085Z,1.32
2023-04-25T03:27:47.139Z,1.34
2023-04-25T03:28:47.195Z,1.31
2023-04-25T03:29:47.239Z,1.33
2023-04-25T03:30:47.283Z,1.32
2023-04-25T03:31:47.376Z,1.30
2023-04-25T03:32:47.363Z,1.31
2023-04-25T03:33:47.511Z,1.32
2023-04-25T03:34:47.505Z,1.34
2023-04-25T03:35:47.552Z,1.29
2023-04-25T03:36:47.607Z,1.31
2023-04-25T03:37:47.658Z,1.27
2023-04-25T03:38:47.689Z,1.29
2023-04-25T03:39:47.743Z,1.31
2023-04-25T03:40:47.789Z,1.32
2023-04-25T03:41:47.825Z,1.32
2023-04-25T03:42:47.865Z,1.29
2023-04-25T03:43:48.027Z,1.29
2023-04-25T03:44:47.926Z,1.28
2023-04-25T03:45:48.003Z,1.29
2023-04-25T03:46:48.028Z,1.29
2023-04-25T03:47:48.135Z,1.27
2023-04-25T03:48:48.151Z,1.28
2023-04-25T03:49:48.192Z,1.27
2023-04-25T03:50:48.251Z,1.30
2023-04-25T03:51:48.246Z,1.30
2023-04-25T03:52:48.232Z,1.30
2023-04-25T03:53:48.330Z,1.30
2023-04-25T03:54:48.213Z,1.28
2023-04-25T03:55:48.201Z,1.30
2023-04-25T03:56:48.204Z,1.31
2023-04-25T03:57:48.177Z,1.28
2023-04-25T03:58:48.179Z,1.25
2023-04-25T03:59:48.172Z,1.27
2023-04-25T04:00:48.158Z,1.26
2023-04-25T04:01:48.211Z,1.27
2023-04-25T04:02:48.321Z,1.27
2023-04-25T04:03:48.481Z,1.29
2023-04-25T04:04:48.630Z,1.28
2023-04-25T04:05:48.482Z,1.27
2023-04-25T04:06:48.442Z,1.32
2023-04-25T04:07:48.466Z,1.26
2023-04-25T04:08:48.505Z,1.28
2023-04-25T04:09:48.568Z,1.29
2023-04-25T04:10:48.618Z,1.28
2023-04-25T04:11:48.659Z,1.27
2023-04-25T04:12:48.668Z,1.27
2023-04-25T04:13:49.039Z,1.27
2023-04-25T04:14:48.649Z,1.27
2023-04-25T04:15:48.645Z,1.28
2023-04-25T04:16:48.630Z,1.29
2023-04-25T04:17:48.652Z,1.27
2023-04-25T04:18:48.604Z,1.26
2023-04-25T04:19:48.589Z,1.33
2023-04-25T04:20:48.598Z,1.28
2023-04-25T04:21:48.587Z,1.27
2023-04-25T04:22:48.646Z,1.29
2023-04-25T04:23:48.804Z,1.24
2023-04-25T04:24:48.738Z,1.25
2023-04-25T04:25:48.834Z,1.27
2023-04-25T04:26:48.876Z,1.27
2023-04-25T04:27:48.895Z,1.26
2023-04-25T04:28:48.962Z,1.31
2023-04-25T04:29:48.984Z,1.25
2023-04-25T04:30:49.045Z,1.24
2023-04-25T04:31:49.111Z,1.24
2023-04-25T04:32:50.595Z,1.24
2023-04-25T04:33:49.447Z,1.23
2023-04-25T04:34:49.256Z,1.29
2023-04-25T04:35:49.316Z,1.25
2023-04-25T04:36:49.363Z,1.27
2023-04-25T04:37:49.389Z,1.25
2023-04-25T04:38:49.457Z,1.28
2023-04-25T04:39:49.523Z,1.25
2023-04-25T04:40:49.507Z,1.25
2023-04-25T04:41:49.526Z,1.25
2023-04-25T04:42:49.485Z,1.25
2023-04-25T04:43:49.630Z,1.25
2023-04-25T04:44:49.464Z,1.26
2023-04-25T04:45:49.460Z,1.24
2023-04-25T04:46:49.570Z,1.26
2023-04-25T04:47:50.130Z,1.23
2023-04-25T04:48:49.435Z,1.25
2023-04-25T04:49:49.491Z,1.23
2023-04-25T04:50:49.544Z,1.23
2023-04-25T04:51:49.612Z,1.26
2023-04-25T04:52:49.650Z,1.25
2023-04-25T04:53:50.847Z,1.24
2023-04-25T04:54:49.784Z,1.23
2023-04-25T04:55:49.810Z,1.30
2023-04-25T04:56:49.870Z,1.26
2023-04-25T04:57:49.973Z,1.26
2023-04-25T04:58:50.088Z,1.24
2023-04-25T04:59:50.041Z,1.27
2023-04-25T05:00:50.135Z,1.27
2023-04-25T05:01:50.165Z,1.26
2023-04-25T05:02:50.381Z,1.22
2023-04-25T05:03:50.917Z,1.23
2023-04-25T05:04:50.433Z,1.24
2023-04-25T05:05:50.397Z,1.24
2023-04-25T05:06:50.453Z,1.24
2023-04-25T05:07:50.518Z,1.22
2023-04-25T05:08:50.572Z,1.21
2023-04-25T05:09:50.634Z,1.22
2023-04-25T05:10:50.683Z,1.23
2023-04-25T05:11:50.748Z,1.24
2023-04-25T05:12:50.803Z,1.20
2023-04-25T05:13:51.026Z,1.22
2023-04-25T05:14:50.875Z,1.23
2023-04-25T05:15:50.855Z,1.22
2023-04-25T05:16:50.900Z,1.24
2023-04-25T05:17:50.889Z,1.23
2023-04-25T05:18:50.860Z,1.23
2023-04-25T05:19:50.904Z,1.25
2023-04-25T05:20:50.859Z,1.22
2023-04-25T05:21:50.852Z,1.24
2023-04-25T05:22:50.908Z,1.22
2023-04-25T05:23:51.089Z,1.24
2023-04-25T05:24:51.004Z,1.20
2023-04-25T05:25:52.012Z,1.20
2023-04-25T05:26:50.988Z,1.16
2023-04-25T05:27:51.001Z,1.17
2023-04-25T05:28:51.020Z,1.13
2023-04-25T05:29:51.002Z,1.08
2023-04-25T05:30:51.007Z,1.05
2023-04-25T05:31:51.069Z,1.11
2023-04-25T05:32:51.067Z,1.06
2023-04-25T05:33:51.296Z,1.03
2023-04-25T05:34:57.724Z,1.06
2023-04-25T05:35:51.046Z,1.07
2023-04-25T05:36:52.698Z,1.08
2023-04-25T05:37:51.042Z,1.11
2023-04-25T05:38:51.033Z,1.16
2023-04-25T05:39:51.030Z,1.24
2023-04-25T05:40:51.045Z,1.27
2023-04-25T05:41:51.028Z,1.35
2023-04-25T05:42:51.033Z,1.40
2023-04-25T05:43:51.494Z,1.49
2023-04-25T05:44:51.014Z,1.54
2023-04-25T05:45:51.057Z,1.65
2023-04-25T05:46:51.008Z,1.73
2023-04-25T05:47:51.071Z,1.79
2023-04-25T05:48:51.001Z,1.89
2023-04-25T05:49:51.000Z,1.96
2023-04-25T05:50:50.999Z,2.06
2023-04-25T05:51:50.993Z,2.16
2023-04-25T05:52:50.993Z,2.29
2023-04-25T05:53:51.232Z,2.47
2023-04-25T05:54:51.053Z,2.59
2023-04-25T05:55:52.719Z,2.70
2023-04-25T05:56:51.675Z,2.81
2023-04-25T05:57:51.689Z,2.99
2023-04-25T05:58:51.681Z,3.15
2023-04-25T05:59:52.182Z,3.37
2023-04-25T06:00:51.237Z,3.53
2023-04-25T06:01:51.223Z,3.70
2023-04-25T06:02:51.366Z,3.85
2023-04-25T06:03:51.552Z,4.10
2023-04-25T06:04:51.450Z,4.42
2023-04-25T06:05:51.336Z,4.61
2023-04-25T06:06:51.347Z,4.79
2023-04-25T06:07:51.373Z,5.05
2023-04-25T06:08:51.346Z,5.07
2023-04-25T06:09:52.197Z,5.14
2023-04-25T06:10:51.325Z,5.35
2023-04-25T06:11:51.320Z,5.67
2023-04-25T06:12:51.308Z,6.28
2023-04-25T06:13:51.500Z,6.52
2023-04-25T06:14:51.272Z,6.73
2023-04-25T06:15:51.778Z,6.87
2023-04-25T06:16:51.356Z,7.16
2023-04-25T06:17:51.362Z,7.35
2023-04-25T06:18:51.212Z,7.43
2023-04-25T06:19:51.184Z,7.80
2023-04-25T06:20:51.179Z,8.03
2023-04-25T06:21:51.151Z,8.64
2023-04-25T06:22:51.142Z,8.64
2023-04-25T06:23:51.306Z,8.43
2023-04-25T06:24:51.694Z,8.61
2023-04-25T06:25:51.080Z,8.58
2023-04-25T06:26:51.057Z,8.56
2023-04-25T06:27:51.041Z,8.76
2023-04-25T06:28:51.016Z,8.74
2023-04-25T06:29:51.003Z,8.83
2023-04-25T06:30:50.992Z,8.93
2023-04-25T06:31:51.229Z,8.85
2023-04-25T06:32:51.032Z,8.84
2023-04-25T06:33:51.206Z,8.70
2023-04-25T06:34:50.983Z,8.83
2023-04-25T06:35:51.059Z,8.78
2023-04-25T06:36:51.003Z,8.58
2023-04-25T06:37:51.040Z,8.62
2023-04-25T06:38:51.169Z,8.35
2023-04-25T06:39:51.015Z,8.49
2023-04-25T06:40:51.015Z,8.42
2023-04-25T06:41:51.028Z,8.36
2023-04-25T06:42:51.063Z,8.52
2023-04-25T06:43:53.209Z,8.52
2023-04-25T06:44:51.036Z,8.21
2023-04-25T06:45:51.073Z,8.09
2023-04-25T06:46:51.827Z,8.20
2023-04-25T06:47:51.133Z,8.22
2023-04-25T06:48:51.399Z,8.15
2023-04-25T06:49:51.141Z,7.98
2023-04-25T06:50:51.153Z,7.99
2023-04-25T06:51:51.181Z,8.09
2023-04-25T06:52:51.191Z,8.03
2023-04-25T06:53:51.234Z,7.94
2023-04-25T06:54:51.241Z,7.82
2023-04-25T06:55:51.271Z,7.76
2023-04-25T06:56:51.302Z,7.82
2023-04-25T06:57:51.310Z,7.71
2023-04-25T06:58:51.690Z,7.78
2023-04-25T06:59:51.340Z,7.79
2023-04-25T07:00:51.418Z,7.78
2023-04-25T07:01:51.327Z,7.75
2023-04-25T07:02:51.391Z,7.50
2023-04-25T07:03:51.435Z,7.33
2023-04-25T07:04:51.428Z,7.59
2023-04-25T07:05:51.284Z,7.57
2023-04-25T07:06:51.288Z,7.38
2023-04-25T07:07:51.275Z,7.20
2023-04-25T07:08:51.425Z,7.35
2023-04-25T07:09:51.263Z,7.15
2023-04-25T07:10:52.244Z,7.24
2023-04-25T07:11:51.231Z,7.04
2023-04-25T07:12:51.225Z,7.08
2023-04-25T07:13:51.320Z,7.07
2023-04-25T07:14:51.283Z,7.16
2023-04-25T07:15:51.314Z,7.00
2023-04-25T07:16:51.365Z,6.86
2023-04-25T07:17:51.441Z,6.91
2023-04-25T07:18:51.646Z,6.80
2023-04-25T07:19:51.437Z,6.49
2023-04-25T07:20:51.486Z,4.87
2023-04-25T07:21:54.069Z,3.32
2023-04-25T07:22:51.805Z,2.40
2023-04-25T07:23:51.820Z,2.46
2023-04-25T07:24:51.845Z,2.31
2023-04-25T07:25:51.858Z,2.04
2023-04-25T07:26:51.904Z,1.91
2023-04-25T07:27:51.895Z,1.86
2023-04-25T07:28:52.112Z,1.65
2023-04-25T07:29:51.914Z,1.57
2023-04-25T07:30:51.921Z,0.85
2023-04-25T07:31:51.954Z,0.73
2023-04-25T07:32:52.131Z,1.23
2023-04-25T07:33:51.969Z,1.18
2023-04-25T07:34:52.322Z,1.05
2023-04-25T07:35:51.998Z,1.03
2023-04-25T07:36:51.994Z,0.95
2023-04-25T07:37:52.013Z,0.86
2023-04-25T07:38:52.290Z,0.91
2023-04-25T07:39:52.023Z,0.98
2023-04-25T07:40:52.037Z,0.93
2023-04-25T07:41:54.480Z,0.84
2023-04-25T07:42:52.065Z,0.96
2023-04-25T07:43:53.728Z,0.95
2023-04-25T07:44:52.046Z,1.02
2023-04-25T07:45:52.094Z,0.97
2023-04-25T07:46:52.056Z,0.80
2023-04-25T07:47:52.094Z,0.76
2023-04-25T07:48:52.399Z,0.72
2023-04-25T07:49:52.059Z,0.69
2023-04-25T07:50:52.056Z,0.79
2023-04-25T07:51:53.057Z,0.74
2023-04-25T07:52:52.068Z,0.58
2023-04-25T07:53:52.075Z,0.57
2023-04-25T07:54:52.070Z,0.54
2023-04-25T07:55:52.130Z,0.51
2023-04-25T07:56:53.889Z,0.56
2023-04-25T07:57:52.723Z,0.51
2023-04-25T07:58:52.412Z,0.53
2023-04-25T07:59:52.105Z,0.49
2023-04-25T08:00:52.100Z,0.56
2023-04-25T08:01:52.118Z,0.56
2023-04-25T08:02:52.357Z,0.56
2023-04-25T08:03:52.244Z,0.56
2023-04-25T08:04:52.231Z,0.49
2023-04-25T08:05:52.309Z,0.51
2023-04-25T08:06:52.129Z,0.49
2023-04-25T08:07:53.769Z,0.48
2023-04-25T08:08:53.895Z,0.50
2023-04-25T08:09:52.157Z,0.55
2023-04-25T08:10:52.179Z,0.65
2023-04-25T08:11:52.156Z,0.65
2023-04-25T08:12:52.163Z,0.84
2023-04-25T08:13:52.177Z,0.85
2023-04-25T08:14:52.169Z,0.88
2023-04-25T08:15:52.209Z,0.88
2023-04-25T08:16:52.196Z,0.84
2023-04-25T08:17:52.230Z,0.85
2023-04-25T08:18:52.529Z,0.87
2023-04-25T08:19:52.216Z,0.84
2023-04-25T08:20:52.182Z,0.84
2023-04-25T08:21:52.176Z,0.85
2023-04-25T08:22:52.185Z,0.71
2023-04-25T08:23:52.236Z,0.74
2023-04-25T08:24:52.213Z,0.78
2023-04-25T08:25:52.227Z,0.61
2023-04-25T08:26:52.234Z,0.71
2023-04-25T08:27:52.249Z,0.67
2023-04-25T08:28:52.510Z,0.68
2023-04-25T08:29:52.758Z,0.71
2023-04-25T08:30:52.259Z,0.71
2023-04-25T08:31:57.255Z,0.73
2023-04-25T08:32:52.372Z,0.73
2023-04-25T08:33:52.283Z,0.73
2023-04-25T08:34:52.272Z,0.73
2023-04-25T08:35:52.273Z,0.73
2023-04-25T08:36:52.307Z,0.73
2023-04-25T08:37:52.268Z,0.73
2023-04-25T08:38:55.221Z,0.73
2023-04-25T08:39:52.263Z,0.73
2023-04-25T08:40:57.753Z,0.74
2023-04-25T08:41:52.368Z,0.73
2023-04-25T08:42:52.400Z,0.75
2023-04-25T08:43:52.458Z,0.80
2023-04-25T08:44:54.276Z,0.87
2023-04-25T08:45:52.505Z,1.02
2023-04-25T08:46:52.559Z,1.10
2023-04-25T08:47:52.610Z,1.18
2023-04-25T08:48:54.435Z,1.25
2023-04-25T08:49:52.548Z,1.37
2023-04-25T08:50:52.544Z,1.42
2023-04-25T08:51:52.545Z,1.49
2023-04-25T08:52:52.530Z,1.57
2023-04-25T08:53:54.388Z,1.63
2023-04-25T08:54:52.584Z,1.63
2023-04-25T08:55:52.794Z,1.64
2023-04-25T08:56:52.477Z,1.68
2023-04-25T08:57:52.466Z,1.76
2023-04-25T08:58:52.659Z,1.94
2023-04-25T08:59:52.444Z,2.02
2023-04-25T09:00:52.494Z,2.11
2023-04-25T09:01:52.434Z,2.24
2023-04-25T09:02:52.484Z,2.35
2023-04-25T09:03:52.560Z,2.39
2023-04-25T09:04:55.951Z,2.53
2023-04-25T09:05:52.383Z,2.53
2023-04-25T09:06:52.370Z,2.56
2023-04-25T09:07:52.347Z,2.64
2023-04-25T09:08:52.306Z,2.81
2023-04-25T09:09:52.291Z,3.11
2023-04-25T09:10:52.279Z,3.11
2023-04-25T09:11:52.266Z,3.34
2023-04-25T09:12:52.336Z,3.45
2023-04-25T09:13:52.438Z,3.58
2023-04-25T09:14:52.250Z,3.70
2023-04-25T09:15:52.224Z,3.79
2023-04-25T09:16:52.239Z,3.88
2023-04-25T09:17:52.194Z,4.14
2023-04-25T09:18:52.173Z,4.16
2023-04-25T09:19:52.164Z,4.04
2023-04-25T09:21:52.136Z,4.12
2023-04-25T09:22:52.751Z,4.22
2023-04-25T09:23:53.308Z,4.17
2023-04-25T09:24:52.218Z,3.85
2023-04-25T09:25:52.086Z,3.73
2023-04-25T09:26:52.066Z,3.81
2023-04-25T09:27:56.778Z,3.88
2023-04-25T09:28:52.037Z,3.89
2023-04-25T09:29:52.015Z,3.91
2023-04-25T09:30:51.992Z,4.00
2023-04-25T09:31:52.104Z,3.90
2023-04-25T09:32:52.022Z,3.97
2023-04-25T09:33:54.684Z,4.16
2023-04-25T09:34:51.960Z,3.92
2023-04-25T09:35:54.767Z,4.04
2023-04-25T09:36:51.892Z,3.92
2023-04-25T09:37:51.882Z,4.08
2023-04-25T09:38:51.855Z,4.35
2023-04-25T09:39:51.829Z,4.89
2023-04-25T09:40:51.801Z,5.74
2023-04-25T09:41:51.778Z,6.10
2023-04-25T09:42:52.753Z,6.38
2023-04-25T09:43:51.749Z,6.60
2023-04-25T09:44:51.720Z,6.63
2023-04-25T09:45:51.737Z,6.76
2023-04-25T09:46:51.691Z,6.98
2023-04-25T09:47:51.694Z,7.08
2023-04-25T09:48:51.657Z,7.35
2023-04-25T09:49:54.261Z,7.49
2023-04-25T09:50:51.606Z,7.74
2023-04-25T09:51:51.586Z,7.79
2023-04-25T09:52:51.571Z,7.96
2023-04-25T09:53:51.894Z,7.99
2023-04-25T09:54:52.585Z,8.00
2023-04-25T09:55:51.521Z,8.09
2023-04-25T09:56:52.201Z,8.30
2023-04-25T09:57:51.468Z,8.78
2023-04-25T09:58:51.454Z,9.47
2023-04-25T09:59:51.436Z,9.60
2023-04-25T10:00:51.393Z,10.00
2023-04-25T10:01:54.911Z,10.26
2023-04-25T10:02:51.443Z,10.77
2023-04-25T10:03:52.389Z,10.84
2023-04-25T10:04:51.314Z,10.86
2023-04-25T10:05:51.273Z,10.85
2023-04-25T10:06:51.251Z,11.62
2023-04-25T10:07:51.224Z,11.75
2023-04-25T10:08:51.204Z,12.18
2023-04-25T10:09:51.165Z,11.59
2023-04-25T10:10:51.138Z,11.68
2023-04-25T10:11:51.130Z,11.58
2023-04-25T10:12:51.125Z,11.23
2023-04-25T10:13:51.250Z,11.09
2023-04-25T10:14:51.087Z,11.17
2023-04-25T10:15:51.092Z,10.78
2023-04-25T10:16:51.004Z,10.69
2023-04-25T10:17:51.003Z,10.64
2023-04-25T10:18:50.946Z,10.71
2023-04-25T10:19:50.932Z,10.39
2023-04-25T10:20:52.239Z,10.56
2023-04-25T10:21:50.948Z,10.89
2023-04-25T10:22:50.869Z,10.43
2023-04-25T10:23:51.073Z,10.46
2023-04-25T10:24:50.823Z,10.48
2023-04-25T10:25:50.811Z,10.49
2023-04-25T10:26:50.785Z,10.38
2023-04-25T10:27:50.787Z,10.31
2023-04-25T10:28:50.751Z,10.23
2023-04-25T10:29:50.751Z,10.15
2023-04-25T10:30:50.821Z,9.93
2023-04-25T10:31:50.771Z,9.66
2023-04-25T10:32:50.677Z,9.58
2023-04-25T10:33:50.873Z,9.39
2023-04-25T10:34:51.648Z,9.41
2023-04-25T10:35:50.623Z,9.42
2023-04-25T10:36:50.605Z,9.44
2023-04-25T10:37:50.622Z,9.47
2023-04-25T10:38:50.598Z,9.46
2023-04-25T10:39:51.043Z,9.24
2023-04-25T10:40:50.535Z,9.09
2023-04-25T10:41:50.562Z,8.95
2023-04-25T10:42:50.497Z,8.90
2023-04-25T10:43:50.809Z,8.71
2023-04-25T10:44:50.461Z,8.57
2023-04-25T10:45:50.444Z,8.40
2023-04-25T10:46:50.459Z,8.46
2023-04-25T10:47:50.476Z,8.31
2023-04-25T10:48:50.367Z,8.23
2023-04-25T10:49:50.353Z,8.14
2023-04-25T10:50:50.334Z,8.09
2023-04-25T10:51:54.880Z,7.97
2023-04-25T10:52:51.311Z,7.99
2023-04-25T10:53:50.484Z,8.00
2023-04-25T10:54:50.260Z,7.99
2023-04-25T10:55:50.234Z,7.85
2023-04-25T10:56:50.211Z,7.55
2023-04-25T10:57:50.199Z,7.63
2023-04-25T10:58:52.009Z,7.69
2023-04-25T10:59:50.187Z,7.66
2023-04-25T11:01:50.437Z,7.73
2023-04-25T11:02:50.234Z,7.72
2023-04-25T11:03:50.313Z,7.55
2023-04-25T11:04:50.223Z,7.51
2023-04-25T11:05:57.920Z,7.30
2023-04-25T11:06:53.862Z,7.73
2023-04-25T11:08:00.034Z,7.73
2023-04-25T11:08:51.278Z,7.74
2023-04-25T11:09:50.044Z,7.78
2023-04-25T11:10:52.106Z,7.69
2023-04-25T11:11:49.965Z,7.59
2023-04-25T11:12:49.945Z,7.42
2023-04-25T11:13:50.789Z,7.37
2023-04-25T11:14:49.956Z,7.12
2023-04-25T11:15:55.035Z,7.03
2023-04-25T11:16:50.920Z,7.05
2023-04-25T11:17:49.942Z,7.04
2023-04-25T11:18:50.064Z,6.92
2023-04-25T11:19:49.899Z,7.01
2023-04-25T11:20:49.818Z,6.86
2023-04-25T11:21:49.793Z,6.75
2023-04-25T11:22:50.942Z,6.77
2023-04-25T11:23:50.125Z,6.73
2023-04-25T11:24:49.820Z,6.74
2023-04-25T11:25:49.807Z,6.67
2023-04-25T11:26:49.813Z,6.67
2023-04-25T11:27:50.742Z,6.46
2023-04-25T11:28:49.810Z,6.52
2023-04-25T11:29:49.810Z,6.50
2023-04-25T11:30:49.837Z,6.36
2023-04-25T11:31:49.853Z,6.31
2023-04-25T11:32:49.866Z,6.25
2023-04-25T11:33:49.981Z,6.35
2023-04-25T11:34:49.841Z,6.26
2023-04-25T11:35:49.839Z,6.33
2023-04-25T11:36:49.848Z,6.13
2023-04-25T11:37:49.846Z,6.21
2023-04-25T11:38:49.846Z,6.22
2023-04-25T11:39:49.885Z,6.05
2023-04-25T11:40:49.870Z,5.97
2023-04-25T11:41:49.889Z,6.11
2023-04-25T11:42:49.927Z,5.90
2023-04-25T11:43:49.914Z,5.78
2023-04-25T11:44:49.908Z,5.85
2023-04-25T11:45:49.965Z,5.81
2023-04-25T11:46:49.947Z,5.87
2023-04-25T11:47:50.174Z,5.69
2023-04-25T11:48:50.063Z,5.71
2023-04-25T11:49:49.921Z,5.71
2023-04-25T11:50:49.920Z,5.61
2023-04-25T11:51:49.921Z,5.48
2023-04-25T11:52:49.928Z,5.52
2023-04-25T11:53:49.926Z,5.58
2023-04-25T11:54:49.933Z,5.55
2023-04-25T11:55:51.343Z,5.55
2023-04-25T11:56:49.933Z,5.67
2023-04-25T11:57:49.947Z,5.46
2023-04-25T11:58:49.953Z,5.27
2023-04-25T11:59:49.961Z,5.53
2023-04-25T12:00:50.555Z,5.36
2023-04-25T12:01:49.975Z,5.41
2023-04-25T12:02:50.034Z,5.32
2023-04-25T12:03:50.133Z,5.30
2023-04-25T12:04:50.142Z,5.29
2023-04-25T12:05:50.275Z,5.19
2023-04-25T12:06:50.069Z,5.19
2023-04-25T12:07:50.023Z,5.09
2023-04-25T12:08:50.252Z,5.10
2023-04-25T12:09:50.006Z,5.02
2023-04-25T12:10:50.025Z,5.06
2023-04-25T12:11:50.028Z,5.03
2023-04-25T12:12:50.040Z,5.16
2023-04-25T12:13:50.047Z,4.98
2023-04-25T12:14:50.056Z,4.93
2023-04-25T12:15:50.129Z,4.97
2023-04-25T12:16:50.060Z,4.94
2023-04-25T12:17:50.096Z,4.87
2023-04-25T12:18:50.298Z,4.77
2023-04-25T12:19:50.090Z,4.73
2023-04-25T12:20:50.128Z,4.78
2023-04-25T12:21:57.944Z,4.80
2023-04-25T12:22:51.075Z,4.81
2023-04-25T12:23:50.065Z,4.77
2023-04-25T12:24:50.050Z,4.78
2023-04-25T12:25:50.037Z,4.76
2023-04-25T12:26:50.019Z,4.61
2023-04-25T12:27:50.010Z,4.59
2023-04-25T12:28:50.157Z,4.66
2023-04-25T12:29:50.164Z,4.58
2023-04-25T12:30:49.959Z,4.58
2023-04-25T12:31:50.108Z,4.66
2023-04-25T12:32:49.993Z,4.46
2023-04-25T12:33:49.938Z,4.42
2023-04-25T12:34:50.980Z,4.43
2023-04-25T12:35:49.902Z,4.43
2023-04-25T12:36:49.915Z,4.42
2023-04-25T12:37:49.906Z,4.46
2023-04-25T12:38:50.000Z,4.38
2023-04-25T12:39:49.909Z,4.40
2023-04-25T12:40:49.864Z,4.39
2023-04-25T12:41:49.916Z,4.45
2023-04-25T12:42:49.852Z,4.29
2023-04-25T12:43:49.852Z,4.22
2023-04-25T12:44:49.829Z,4.26
2023-04-25T12:45:49.832Z,4.29
2023-04-25T12:46:49.855Z,4.25
2023-04-25T12:47:49.875Z,4.21
2023-04-25T12:48:49.978Z,4.21
2023-04-25T12:49:49.806Z,4.19
2023-04-25T12:50:49.795Z,4.28
2023-04-25T12:51:49.772Z,4.24
2023-04-25T12:52:49.759Z,4.15
2023-04-25T12:53:49.757Z,4.11
2023-04-25T12:54:49.762Z,4.20
2023-04-25T12:55:49.776Z,4.09
2023-04-25T12:56:49.735Z,4.12
2023-04-25T12:57:49.758Z,4.03
2023-04-25T12:58:49.962Z,4.03
2023-04-25T12:59:49.756Z,4.10
2023-04-25T13:00:49.816Z,3.97
2023-04-25T13:01:49.851Z,3.97
2023-04-25T13:02:49.880Z,3.98
2023-04-25T13:03:49.977Z,3.95
2023-04-25T13:04:49.815Z,3.86
2023-04-25T13:05:49.842Z,3.93
2023-04-25T13:06:49.861Z,3.90
2023-04-25T13:07:49.877Z,3.91
2023-04-25T13:09:49.882Z,3.78
2023-04-25T13:10:49.905Z,3.83
2023-04-25T13:11:49.929Z,3.85
2023-04-25T13:12:49.969Z,3.81
2023-04-25T13:13:50.107Z,3.72
2023-04-25T13:14:49.959Z,3.79
2023-04-25T13:15:50.001Z,3.80
2023-04-25T13:16:50.029Z,3.75
2023-04-25T13:17:50.145Z,3.77
2023-04-25T13:18:50.022Z,3.78
2023-04-25T13:19:50.048Z,3.69
2023-04-25T13:20:50.063Z,3.71